sensor_id;sensor_type;location;lat;lon;timestamp;temperature;humidity
22623;DHT22;11478;51.094;7.030;2022-08-04T00:04:48;19.30;99.90
22623;DHT22;11478;51.094;7.030;2022-08-04T00:10:26;19.30;99.90
22623;DHT22;11478;51.094;7.030;2022-08-04T00:13:07;19.30;99.90
22623;DHT22;11478;51.094;7.030;2022-08-04T00:15:42;19.30;99.90
22623;DHT22;11478;51.094;7.030;2022-08-04T00:18:22;19.30;99.90
22623;DHT22;11478;51.094;7.030;2022-08-04T00:21:24;19.30;99.90
22623;DHT22;11478;51.094;7.030;2022-08-04T00:24:17;19.20;99.90
22623;DHT22;11478;51.094;7.030;2022-08-04T00:26:46;19.20;99.90
22623;DHT22;11478;51.094;7.030;2022-08-04T00:29:34;19.20;99.90
22623;DHT22;11478;51.094;7.030;2022-08-04T00:32:11;19.20;99.90
22623;DHT22;11478;51.094;7.030;2022-08-04T00:34:57;19.20;99.90
22623;DHT22;11478;51.094;7.030;2022-08-04T00:37:33;19.20;99.90
22623;DHT22;11478;51.094;7.030;2022-08-04T00:43:11;19.20;99.90
22623;DHT22;11478;51.094;7.030;2022-08-04T00:59:49;19.10;99.90
22623;DHT22;11478;51.094;7.030;2022-08-04T01:02:37;19.10;99.90
22623;DHT22;11478;51.094;7.030;2022-08-04T01:05:20;19.00;99.90
22623;DHT22;11478;51.094;7.030;2022-08-04T01:29:06;18.60;99.90
22623;DHT22;11478;51.094;7.030;2022-08-04T01:34:19;18.50;99.90
22623;DHT22;11478;51.094;7.030;2022-08-04T01:37:06;18.40;99.90
22623;DHT22;11478;51.094;7.030;2022-08-04T01:42:53;18.30;99.90
22623;DHT22;11478;51.094;7.030;2022-08-04T01:45:30;18.30;99.90
22623;DHT22;11478;51.094;7.030;2022-08-04T01:48:13;18.20;99.90
22623;DHT22;11478;51.094;7.030;2022-08-04T01:50:43;18.20;99.90
22623;DHT22;11478;51.094;7.030;2022-08-04T01:53:23;18.20;99.90
22623;DHT22;11478;51.094;7.030;2022-08-04T01:55:59;18.10;99.90
22623;DHT22;11478;51.094;7.030;2022-08-04T01:58:41;18.10;99.90
22623;DHT22;11478;51.094;7.030;2022-08-04T02:01:14;18.10;99.90
22623;DHT22;11478;51.094;7.030;2022-08-04T02:03:45;18.10;99.90
22623;DHT22;11478;51.094;7.030;2022-08-04T02:12:04;17.90;99.90
22623;DHT22;11478;51.094;7.030;2022-08-04T02:15:29;17.90;99.90
22623;DHT22;11478;51.094;7.030;2022-08-04T02:17:35;17.80;99.90
22623;DHT22;11478;51.094;7.030;2022-08-04T02:20:11;17.80;99.90
22623;DHT22;11478;51.094;7.030;2022-08-04T02:23:07;17.70;99.90
22623;DHT22;11478;51.094;7.030;2022-08-04T02:25:45;17.70;99.90
22623;DHT22;11478;51.094;7.030;2022-08-04T02:34:03;17.60;99.90
22623;DHT22;11478;51.094;7.030;2022-08-04T02:36:38;17.60;99.90
22623;DHT22;11478;51.094;7.030;2022-08-04T02:39:07;17.50;99.90
22623;DHT22;11478;51.094;7.030;2022-08-04T02:41:34;17.50;99.90
22623;DHT22;11478;51.094;7.030;2022-08-04T02:44:09;17.50;99.90
22623;DHT22;11478;51.094;7.030;2022-08-04T02:46:38;17.50;99.90
22623;DHT22;11478;51.094;7.030;2022-08-04T02:49:08;17.40;99.90
22623;DHT22;11478;51.094;7.030;2022-08-04T02:51:40;17.40;99.90
22623;DHT22;11478;51.094;7.030;2022-08-04T02:54:09;17.40;99.90
22623;DHT22;11478;51.094;7.030;2022-08-04T02:56:38;17.40;99.90
22623;DHT22;11478;51.094;7.030;2022-08-04T02:59:08;17.40;99.90
22623;DHT22;11478;51.094;7.030;2022-08-04T03:01:38;17.30;99.90
22623;DHT22;11478;51.094;7.030;2022-08-04T03:07:51;17.30;99.90
22623;DHT22;11478;51.094;7.030;2022-08-04T03:22:22;17.10;99.90
22623;DHT22;11478;51.094;7.030;2022-08-04T03:28:16;17.10;99.90
22623;DHT22;11478;51.094;7.030;2022-08-04T03:30:56;17.10;99.90
22623;DHT22;11478;51.094;7.030;2022-08-04T03:51:42;16.90;99.90
22623;DHT22;11478;51.094;7.030;2022-08-04T04:00:14;16.90;99.90
22623;DHT22;11478;51.094;7.030;2022-08-04T04:14:03;16.80;99.90
22623;DHT22;11478;51.094;7.030;2022-08-04T04:20:04;16.80;99.90
22623;DHT22;11478;51.094;7.030;2022-08-04T04:45:33;16.90;99.90
22623;DHT22;11478;51.094;7.030;2022-08-04T04:48:38;17.00;99.90
22623;DHT22;11478;51.094;7.030;2022-08-04T04:57:18;17.10;99.90
22623;DHT22;11478;51.094;7.030;2022-08-04T05:00:22;17.20;99.90
22623;DHT22;11478;51.094;7.030;2022-08-04T05:09:02;17.30;99.90
22623;DHT22;11478;51.094;7.030;2022-08-04T05:14:23;17.30;99.90
22623;DHT22;11478;51.094;7.030;2022-08-04T05:17:03;17.40;99.90
22623;DHT22;11478;51.094;7.030;2022-08-04T05:19:42;17.40;99.90
22623;DHT22;11478;51.094;7.030;2022-08-04T05:24:45;17.40;99.90
22623;DHT22;11478;51.094;7.030;2022-08-04T05:27:24;17.50;99.90
22623;DHT22;11478;51.094;7.030;2022-08-04T05:29:58;17.50;99.90
22623;DHT22;11478;51.094;7.030;2022-08-04T05:32:30;17.50;99.90
22623;DHT22;11478;51.094;7.030;2022-08-04T05:35:06;17.60;99.90
22623;DHT22;11478;51.094;7.030;2022-08-04T05:37:37;17.70;99.90
22623;DHT22;11478;51.094;7.030;2022-08-04T05:40:06;17.70;99.90
22623;DHT22;11478;51.094;7.030;2022-08-04T05:42:37;17.70;99.90
22623;DHT22;11478;51.094;7.030;2022-08-04T05:45:07;17.80;99.90
22623;DHT22;11478;51.094;7.030;2022-08-04T05:47:36;17.80;99.90
22623;DHT22;11478;51.094;7.030;2022-08-04T05:50:04;17.90;99.90
22623;DHT22;11478;51.094;7.030;2022-08-04T05:52:34;18.00;99.90
22623;DHT22;11478;51.094;7.030;2022-08-04T05:55:03;18.10;99.90
22623;DHT22;11478;51.094;7.030;2022-08-04T05:57:40;18.20;99.90
22623;DHT22;11478;51.094;7.030;2022-08-04T06:00:10;18.20;99.90
22623;DHT22;11478;51.094;7.030;2022-08-04T06:02:37;18.30;99.90
22623;DHT22;11478;51.094;7.030;2022-08-04T06:05:07;18.40;99.90
22623;DHT22;11478;51.094;7.030;2022-08-04T06:07:47;18.50;99.90
22623;DHT22;11478;51.094;7.030;2022-08-04T06:10:28;18.50;99.90
22623;DHT22;11478;51.094;7.030;2022-08-04T06:13:04;18.60;99.90
22623;DHT22;11478;51.094;7.030;2022-08-04T06:15:39;18.70;99.90
22623;DHT22;11478;51.094;7.030;2022-08-04T06:18:16;18.80;99.90
22623;DHT22;11478;51.094;7.030;2022-08-04T06:20:45;18.90;99.90
22623;DHT22;11478;51.094;7.030;2022-08-04T06:23:15;19.10;99.90
22623;DHT22;11478;51.094;7.030;2022-08-04T06:25:50;19.20;99.90
22623;DHT22;11478;51.094;7.030;2022-08-04T06:28:20;19.30;99.90
22623;DHT22;11478;51.094;7.030;2022-08-04T06:30:49;19.50;99.90
22623;DHT22;11478;51.094;7.030;2022-08-04T06:33:16;19.60;99.90
22623;DHT22;11478;51.094;7.030;2022-08-04T06:35:59;19.70;99.90
22623;DHT22;11478;51.094;7.030;2022-08-04T06:38:32;19.80;99.90
22623;DHT22;11478;51.094;7.030;2022-08-04T06:41:11;19.90;99.90
22623;DHT22;11478;51.094;7.030;2022-08-04T06:43:38;20.10;99.90
22623;DHT22;11478;51.094;7.030;2022-08-04T06:46:08;20.20;99.90
22623;DHT22;11478;51.094;7.030;2022-08-04T06:48:34;20.30;99.90
22623;DHT22;11478;51.094;7.030;2022-08-04T06:51:03;20.40;99.90
22623;DHT22;11478;51.094;7.030;2022-08-04T06:53:33;20.50;99.90
22623;DHT22;11478;51.094;7.030;2022-08-04T06:56:00;20.70;99.90
22623;DHT22;11478;51.094;7.030;2022-08-04T06:58:27;20.80;99.90
22623;DHT22;11478;51.094;7.030;2022-08-04T07:00:56;20.90;99.90
22623;DHT22;11478;51.094;7.030;2022-08-04T07:03:26;21.10;99.90
22623;DHT22;11478;51.094;7.030;2022-08-04T07:05:55;21.20;99.90
22623;DHT22;11478;51.094;7.030;2022-08-04T07:08:21;21.40;99.90
22623;DHT22;11478;51.094;7.030;2022-08-04T07:10:52;21.50;99.90
22623;DHT22;11478;51.094;7.030;2022-08-04T07:13:20;21.70;99.90
22623;DHT22;11478;51.094;7.030;2022-08-04T07:15:47;21.80;99.90
22623;DHT22;11478;51.094;7.030;2022-08-04T07:18:14;21.90;99.90
22623;DHT22;11478;51.094;7.030;2022-08-04T07:20:42;22.00;99.90
22623;DHT22;11478;51.094;7.030;2022-08-04T07:23:10;22.10;99.90
22623;DHT22;11478;51.094;7.030;2022-08-04T07:25:38;22.20;99.90
22623;DHT22;11478;51.094;7.030;2022-08-04T07:28:04;22.40;99.90
22623;DHT22;11478;51.094;7.030;2022-08-04T07:30:31;22.50;99.90
22623;DHT22;11478;51.094;7.030;2022-08-04T07:33:03;22.60;99.90
22623;DHT22;11478;51.094;7.030;2022-08-04T07:35:30;22.70;99.90
22623;DHT22;11478;51.094;7.030;2022-08-04T07:37:58;22.80;99.90
22623;DHT22;11478;51.094;7.030;2022-08-04T07:40:32;22.90;99.90
22623;DHT22;11478;51.094;7.030;2022-08-04T07:43:00;23.00;99.90
22623;DHT22;11478;51.094;7.030;2022-08-04T07:45:28;23.00;99.90
22623;DHT22;11478;51.094;7.030;2022-08-04T07:47:55;23.20;99.90
22623;DHT22;11478;51.094;7.030;2022-08-04T07:50:22;23.30;99.90
22623;DHT22;11478;51.094;7.030;2022-08-04T07:52:51;23.30;99.90
22623;DHT22;11478;51.094;7.030;2022-08-04T07:55:18;23.50;99.90
22623;DHT22;11478;51.094;7.030;2022-08-04T07:57:47;23.60;99.90
22623;DHT22;11478;51.094;7.030;2022-08-04T08:00:13;23.70;99.90
22623;DHT22;11478;51.094;7.030;2022-08-04T08:02:45;23.90;99.90
22623;DHT22;11478;51.094;7.030;2022-08-04T08:05:14;24.00;99.90
22623;DHT22;11478;51.094;7.030;2022-08-04T08:07:50;24.20;99.90
22623;DHT22;11478;51.094;7.030;2022-08-04T08:10:19;24.30;99.90
22623;DHT22;11478;51.094;7.030;2022-08-04T08:12:52;24.50;99.90
22623;DHT22;11478;51.094;7.030;2022-08-04T08:15:20;24.60;99.90
22623;DHT22;11478;51.094;7.030;2022-08-04T08:17:51;24.70;99.90
22623;DHT22;11478;51.094;7.030;2022-08-04T08:20:20;24.80;99.90
22623;DHT22;11478;51.094;7.030;2022-08-04T08:22:57;25.20;99.90
22623;DHT22;11478;51.094;7.030;2022-08-04T08:25:34;25.40;99.90
22623;DHT22;11478;51.094;7.030;2022-08-04T08:28:05;25.60;99.90
22623;DHT22;11478;51.094;7.030;2022-08-04T08:30:42;25.70;99.90
22623;DHT22;11478;51.094;7.030;2022-08-04T08:33:17;25.80;99.90
22623;DHT22;11478;51.094;7.030;2022-08-04T09:31:23;27.70;99.90
22623;DHT22;11478;51.094;7.030;2022-08-04T09:34:14;27.60;99.90
22623;DHT22;11478;51.094;7.030;2022-08-04T09:55:49;28.30;99.90
22623;DHT22;11478;51.094;7.030;2022-08-04T10:01:43;28.60;99.90
22623;DHT22;11478;51.094;7.030;2022-08-04T10:04:13;28.70;99.90
22623;DHT22;11478;51.094;7.030;2022-08-04T10:31:27;30.10;95.80
22623;DHT22;11478;51.094;7.030;2022-08-04T10:34:19;30.40;91.40
22623;DHT22;11478;51.094;7.030;2022-08-04T10:36:59;30.60;93.50
22623;DHT22;11478;51.094;7.030;2022-08-04T10:39:51;30.70;92.50
22623;DHT22;11478;51.094;7.030;2022-08-04T10:42:41;30.90;90.10
22623;DHT22;11478;51.094;7.030;2022-08-04T10:45:25;31.00;90.80
22623;DHT22;11478;51.094;7.030;2022-08-04T10:51:20;30.70;92.30
22623;DHT22;11478;51.094;7.030;2022-08-04T10:54:11;30.70;91.60
22623;DHT22;11478;51.094;7.030;2022-08-04T10:56:45;30.80;92.20
22623;DHT22;11478;51.094;7.030;2022-08-04T11:02:45;30.90;90.90
22623;DHT22;11478;51.094;7.030;2022-08-04T11:08:12;31.00;91.00
22623;DHT22;11478;51.094;7.030;2022-08-04T11:11:12;31.10;91.40
22623;DHT22;11478;51.094;7.030;2022-08-04T11:19:33;31.30;90.70
22623;DHT22;11478;51.094;7.030;2022-08-04T11:22:07;31.40;89.90
22623;DHT22;11478;51.094;7.030;2022-08-04T11:27:27;31.40;88.30
22623;DHT22;11478;51.094;7.030;2022-08-04T11:30:07;31.30;90.80
22623;DHT22;11478;51.094;7.030;2022-08-04T11:38:12;31.40;90.50
22623;DHT22;11478;51.094;7.030;2022-08-04T11:41:09;31.30;90.30
22623;DHT22;11478;51.094;7.030;2022-08-04T11:43:55;31.20;82.70
22623;DHT22;11478;51.094;7.030;2022-08-04T11:46:52;31.10;83.70
22623;DHT22;11478;51.094;7.030;2022-08-04T11:49:40;31.00;83.30
22623;DHT22;11478;51.094;7.030;2022-08-04T11:52:15;31.00;83.50
22623;DHT22;11478;51.094;7.030;2022-08-04T11:54:43;30.90;87.10
22623;DHT22;11478;51.094;7.030;2022-08-04T11:57:11;30.80;87.30
22623;DHT22;11478;51.094;7.030;2022-08-04T11:59:37;30.80;87.30
22623;DHT22;11478;51.094;7.030;2022-08-04T12:05:02;30.70;90.00
22623;DHT22;11478;51.094;7.030;2022-08-04T12:08:02;30.60;89.20
22623;DHT22;11478;51.094;7.030;2022-08-04T12:19:54;29.70;96.70
22623;DHT22;11478;51.094;7.030;2022-08-04T12:22:25;29.50;99.90
22623;DHT22;11478;51.094;7.030;2022-08-04T12:25:20;29.40;99.10
22623;DHT22;11478;51.094;7.030;2022-08-04T12:31:01;29.50;99.90
22623;DHT22;11478;51.094;7.030;2022-08-04T12:33:41;29.40;99.90
22623;DHT22;11478;51.094;7.030;2022-08-04T12:39:18;29.30;99.90
22623;DHT22;11478;51.094;7.030;2022-08-04T12:42:00;29.20;99.90
22623;DHT22;11478;51.094;7.030;2022-08-04T12:48:22;29.10;99.90
22623;DHT22;11478;51.094;7.030;2022-08-04T12:50:53;29.00;99.90
22623;DHT22;11478;51.094;7.030;2022-08-04T12:53:41;29.00;99.90
22623;DHT22;11478;51.094;7.030;2022-08-04T12:56:13;28.90;99.90
22623;DHT22;11478;51.094;7.030;2022-08-04T13:09:28;28.80;99.90
22623;DHT22;11478;51.094;7.030;2022-08-04T13:12:39;28.80;99.90
22623;DHT22;11478;51.094;7.030;2022-08-04T13:15:16;28.90;99.90
22623;DHT22;11478;51.094;7.030;2022-08-04T13:17:51;29.00;99.90
22623;DHT22;11478;51.094;7.030;2022-08-04T13:20:33;29.10;99.90
22623;DHT22;11478;51.094;7.030;2022-08-04T13:23:08;29.20;99.90
22623;DHT22;11478;51.094;7.030;2022-08-04T13:25:39;29.20;99.90
22623;DHT22;11478;51.094;7.030;2022-08-04T13:28:23;29.20;99.90
22623;DHT22;11478;51.094;7.030;2022-08-04T13:30:57;29.10;99.90
22623;DHT22;11478;51.094;7.030;2022-08-04T13:33:32;29.10;99.90
22623;DHT22;11478;51.094;7.030;2022-08-04T13:36:07;29.00;99.90
22623;DHT22;11478;51.094;7.030;2022-08-04T13:38:36;29.00;99.90
22623;DHT22;11478;51.094;7.030;2022-08-04T13:41:14;28.90;99.90
22623;DHT22;11478;51.094;7.030;2022-08-04T13:43:49;28.80;99.90
22623;DHT22;11478;51.094;7.030;2022-08-04T13:46:44;28.80;99.90
22623;DHT22;11478;51.094;7.030;2022-08-04T13:49:30;28.90;99.90
22623;DHT22;11478;51.094;7.030;2022-08-04T13:52:04;29.00;99.90
22623;DHT22;11478;51.094;7.030;2022-08-04T13:54:47;29.10;99.90
22623;DHT22;11478;51.094;7.030;2022-08-04T13:57:22;29.30;99.90
22623;DHT22;11478;51.094;7.030;2022-08-04T14:00:04;29.40;99.90
22623;DHT22;11478;51.094;7.030;2022-08-04T14:02:49;29.50;99.10
22623;DHT22;11478;51.094;7.030;2022-08-04T14:05:27;29.60;99.90
22623;DHT22;11478;51.094;7.030;2022-08-04T14:10:32;29.60;99.90
22623;DHT22;11478;51.094;7.030;2022-08-04T14:12:59;29.60;99.90
22623;DHT22;11478;51.094;7.030;2022-08-04T14:15:42;29.50;99.60
22623;DHT22;11478;51.094;7.030;2022-08-04T14:21:10;29.40;99.90
22623;DHT22;11478;51.094;7.030;2022-08-04T14:23:45;29.30;99.90
22623;DHT22;11478;51.094;7.030;2022-08-04T14:29:21;29.00;99.90
22623;DHT22;11478;51.094;7.030;2022-08-04T14:32:00;28.90;99.90
22623;DHT22;11478;51.094;7.030;2022-08-04T14:34:41;28.80;99.90
22623;DHT22;11478;51.094;7.030;2022-08-04T14:37:22;28.60;99.90
22623;DHT22;11478;51.094;7.030;2022-08-04T14:42:44;28.40;99.90
22623;DHT22;11478;51.094;7.030;2022-08-04T14:45:11;28.30;99.90
22623;DHT22;11478;51.094;7.030;2022-08-04T14:47:46;28.20;99.90
22623;DHT22;11478;51.094;7.030;2022-08-04T14:50:17;28.10;99.90
22623;DHT22;11478;51.094;7.030;2022-08-04T14:53:01;27.90;99.90
22623;DHT22;11478;51.094;7.030;2022-08-04T14:55:30;27.80;99.90
22623;DHT22;11478;51.094;7.030;2022-08-04T14:58:05;27.70;99.90
22623;DHT22;11478;51.094;7.030;2022-08-04T15:00:44;27.60;99.90
22623;DHT22;11478;51.094;7.030;2022-08-04T15:03:10;27.40;99.90
22623;DHT22;11478;51.094;7.030;2022-08-04T15:05:41;27.40;99.90
22623;DHT22;11478;51.094;7.030;2022-08-04T15:08:08;27.30;99.90
22623;DHT22;11478;51.094;7.030;2022-08-04T15:15:50;27.20;99.90
22623;DHT22;11478;51.094;7.030;2022-08-04T15:18:18;27.10;99.90
22623;DHT22;11478;51.094;7.030;2022-08-04T15:20:55;27.00;99.90
22623;DHT22;11478;51.094;7.030;2022-08-04T15:23:30;27.00;99.90
22623;DHT22;11478;51.094;7.030;2022-08-04T15:26:04;26.90;99.90
22623;DHT22;11478;51.094;7.030;2022-08-04T15:28:44;26.80;99.90
22623;DHT22;11478;51.094;7.030;2022-08-04T15:31:26;26.70;99.90
22623;DHT22;11478;51.094;7.030;2022-08-04T15:34:02;26.70;99.90
22623;DHT22;11478;51.094;7.030;2022-08-04T15:36:46;26.60;99.90
22623;DHT22;11478;51.094;7.030;2022-08-04T15:42:15;26.60;99.90
22623;DHT22;11478;51.094;7.030;2022-08-04T15:47:33;26.50;99.90
22623;DHT22;11478;51.094;7.030;2022-08-04T15:50:13;26.50;99.90
22623;DHT22;11478;51.094;7.030;2022-08-04T15:52:59;26.40;99.90
22623;DHT22;11478;51.094;7.030;2022-08-04T15:55:43;26.40;99.90
22623;DHT22;11478;51.094;7.030;2022-08-04T15:58:26;26.30;99.90
22623;DHT22;11478;51.094;7.030;2022-08-04T16:01:15;26.20;99.90
22623;DHT22;11478;51.094;7.030;2022-08-04T16:03:53;26.10;99.90
22623;DHT22;11478;51.094;7.030;2022-08-04T16:24:41;25.90;99.90
22623;DHT22;11478;51.094;7.030;2022-08-04T16:30:26;25.90;99.90
22623;DHT22;11478;51.094;7.030;2022-08-04T16:32:52;25.80;99.90
22623;DHT22;11478;51.094;7.030;2022-08-04T16:35:25;25.80;99.90
22623;DHT22;11478;51.094;7.030;2022-08-04T16:38:11;25.90;99.90
22623;DHT22;11478;51.094;7.030;2022-08-04T16:40:42;26.00;99.90
22623;DHT22;11478;51.094;7.030;2022-08-04T16:43:09;26.20;99.90
22623;DHT22;11478;51.094;7.030;2022-08-04T16:45:47;26.30;99.90
22623;DHT22;11478;51.094;7.030;2022-08-04T16:48:19;26.40;99.90
22623;DHT22;11478;51.094;7.030;2022-08-04T16:50:52;26.50;99.90
22623;DHT22;11478;51.094;7.030;2022-08-04T16:53:25;26.60;99.90
22623;DHT22;11478;51.094;7.030;2022-08-04T16:56:03;26.80;99.90
22623;DHT22;11478;51.094;7.030;2022-08-04T16:58:34;26.70;99.90
22623;DHT22;11478;51.094;7.030;2022-08-04T17:01:11;26.60;99.90
22623;DHT22;11478;51.094;7.030;2022-08-04T17:03:39;26.60;99.90
22623;DHT22;11478;51.094;7.030;2022-08-04T17:06:16;26.50;99.90
22623;DHT22;11478;51.094;7.030;2022-08-04T17:08:46;26.40;99.90
22623;DHT22;11478;51.094;7.030;2022-08-04T17:11:17;26.40;99.90
22623;DHT22;11478;51.094;7.030;2022-08-04T17:13:59;26.20;99.90
22623;DHT22;11478;51.094;7.030;2022-08-04T17:16:37;26.10;99.90
22623;DHT22;11478;51.094;7.030;2022-08-04T17:19:17;26.10;99.90
22623;DHT22;11478;51.094;7.030;2022-08-04T17:43:19;26.40;99.90
22623;DHT22;11478;51.094;7.030;2022-08-04T17:46:18;26.40;99.90
22623;DHT22;11478;51.094;7.030;2022-08-04T17:57:41;26.10;99.90
22623;DHT22;11478;51.094;7.030;2022-08-04T18:00:23;26.00;99.90
22623;DHT22;11478;51.094;7.030;2022-08-04T18:03:33;26.00;99.90
22623;DHT22;11478;51.094;7.030;2022-08-04T18:06:11;25.80;99.90
22623;DHT22;11478;51.094;7.030;2022-08-04T18:08:38;25.60;99.90
22623;DHT22;11478;51.094;7.030;2022-08-04T18:11:06;25.50;99.90
22623;DHT22;11478;51.094;7.030;2022-08-04T18:13:55;25.40;99.90
22623;DHT22;11478;51.094;7.030;2022-08-04T18:16:23;25.30;99.90
22623;DHT22;11478;51.094;7.030;2022-08-04T18:19:14;25.30;99.90
22623;DHT22;11478;51.094;7.030;2022-08-04T18:21:41;25.20;99.90
22623;DHT22;11478;51.094;7.030;2022-08-04T18:24:13;25.10;99.90
22623;DHT22;11478;51.094;7.030;2022-08-04T18:26:42;25.10;99.90
22623;DHT22;11478;51.094;7.030;2022-08-04T18:29:08;25.00;99.90
22623;DHT22;11478;51.094;7.030;2022-08-04T18:31:36;25.00;99.90
22623;DHT22;11478;51.094;7.030;2022-08-04T18:34:13;24.90;99.90
22623;DHT22;11478;51.094;7.030;2022-08-04T18:36:39;24.80;99.90
22623;DHT22;11478;51.094;7.030;2022-08-04T18:39:06;24.70;99.90
22623;DHT22;11478;51.094;7.030;2022-08-04T18:41:32;24.60;99.90
22623;DHT22;11478;51.094;7.030;2022-08-04T18:44:02;24.60;99.90
22623;DHT22;11478;51.094;7.030;2022-08-04T18:46:41;24.50;99.90
22623;DHT22;11478;51.094;7.030;2022-08-04T18:49:11;24.40;99.90
22623;DHT22;11478;51.094;7.030;2022-08-04T18:51:40;24.30;99.90
22623;DHT22;11478;51.094;7.030;2022-08-04T18:54:15;24.30;99.90
22623;DHT22;11478;51.094;7.030;2022-08-04T18:56:43;24.30;99.90
22623;DHT22;11478;51.094;7.030;2022-08-04T18:59:10;24.20;99.90
22623;DHT22;11478;51.094;7.030;2022-08-04T19:01:40;24.10;99.90
22623;DHT22;11478;51.094;7.030;2022-08-04T19:04:11;24.10;99.90
22623;DHT22;11478;51.094;7.030;2022-08-04T19:06:46;24.00;99.90
22623;DHT22;11478;51.094;7.030;2022-08-04T19:09:17;24.00;99.90
22623;DHT22;11478;51.094;7.030;2022-08-04T19:11:45;23.90;99.90
22623;DHT22;11478;51.094;7.030;2022-08-04T19:14:15;23.90;99.90
22623;DHT22;11478;51.094;7.030;2022-08-04T19:16:44;23.80;99.90
22623;DHT22;11478;51.094;7.030;2022-08-04T19:19:17;23.70;99.90
22623;DHT22;11478;51.094;7.030;2022-08-04T19:21:44;23.70;99.90
22623;DHT22;11478;51.094;7.030;2022-08-04T19:24:11;23.60;99.90
22623;DHT22;11478;51.094;7.030;2022-08-04T19:26:39;23.50;99.90
22623;DHT22;11478;51.094;7.030;2022-08-04T19:29:08;23.50;99.90
22623;DHT22;11478;51.094;7.030;2022-08-04T19:31:34;23.50;99.90
22623;DHT22;11478;51.094;7.030;2022-08-04T19:34:00;23.40;99.90
22623;DHT22;11478;51.094;7.030;2022-08-04T19:36:28;23.30;99.90
22623;DHT22;11478;51.094;7.030;2022-08-04T19:39:02;23.30;99.90
22623;DHT22;11478;51.094;7.030;2022-08-04T19:41:29;23.20;99.90
22623;DHT22;11478;51.094;7.030;2022-08-04T19:44:04;23.10;99.90
22623;DHT22;11478;51.094;7.030;2022-08-04T19:46:55;23.10;99.90
22623;DHT22;11478;51.094;7.030;2022-08-04T19:49:21;23.00;99.90
22623;DHT22;11478;51.094;7.030;2022-08-04T19:52:06;22.90;99.90
22623;DHT22;11478;51.094;7.030;2022-08-04T19:54:32;22.80;99.90
22623;DHT22;11478;51.094;7.030;2022-08-04T19:56:58;22.70;99.90
22623;DHT22;11478;51.094;7.030;2022-08-04T19:59:25;22.60;99.90
22623;DHT22;11478;51.094;7.030;2022-08-04T20:01:53;22.50;99.90
22623;DHT22;11478;51.094;7.030;2022-08-04T20:04:18;22.40;99.90
22623;DHT22;11478;51.094;7.030;2022-08-04T20:06:44;22.40;99.90
22623;DHT22;11478;51.094;7.030;2022-08-04T20:09:11;22.30;99.90
22623;DHT22;11478;51.094;7.030;2022-08-04T20:11:38;22.20;99.90
22623;DHT22;11478;51.094;7.030;2022-08-04T20:14:04;22.10;99.90
22623;DHT22;11478;51.094;7.030;2022-08-04T20:16:30;22.10;99.90
22623;DHT22;11478;51.094;7.030;2022-08-04T20:18:57;22.00;99.90
22623;DHT22;11478;51.094;7.030;2022-08-04T20:21:24;21.90;99.90
22623;DHT22;11478;51.094;7.030;2022-08-04T20:23:51;21.80;99.90
22623;DHT22;11478;51.094;7.030;2022-08-04T20:26:17;21.80;99.90
22623;DHT22;11478;51.094;7.030;2022-08-04T20:28:43;21.70;99.90
22623;DHT22;11478;51.094;7.030;2022-08-04T20:31:10;21.70;99.90
22623;DHT22;11478;51.094;7.030;2022-08-04T20:33:36;21.60;99.90
22623;DHT22;11478;51.094;7.030;2022-08-04T20:36:03;21.50;99.90
22623;DHT22;11478;51.094;7.030;2022-08-04T20:38:30;21.40;99.90
22623;DHT22;11478;51.094;7.030;2022-08-04T20:40:56;21.40;99.90
22623;DHT22;11478;51.094;7.030;2022-08-04T20:43:22;21.30;99.90
22623;DHT22;11478;51.094;7.030;2022-08-04T20:45:48;21.20;99.90
22623;DHT22;11478;51.094;7.030;2022-08-04T20:48:17;21.20;99.90
22623;DHT22;11478;51.094;7.030;2022-08-04T20:51:01;21.10;99.90
22623;DHT22;11478;51.094;7.030;2022-08-04T20:53:27;21.10;99.90
22623;DHT22;11478;51.094;7.030;2022-08-04T20:55:55;21.00;99.90
22623;DHT22;11478;51.094;7.030;2022-08-04T20:58:23;20.90;99.90
22623;DHT22;11478;51.094;7.030;2022-08-04T21:00:51;20.90;99.90
22623;DHT22;11478;51.094;7.030;2022-08-04T21:03:19;20.90;99.90
22623;DHT22;11478;51.094;7.030;2022-08-04T21:05:49;20.80;99.90
22623;DHT22;11478;51.094;7.030;2022-08-04T21:08:17;20.80;99.90
22623;DHT22;11478;51.094;7.030;2022-08-04T21:10:53;20.70;99.90
22623;DHT22;11478;51.094;7.030;2022-08-04T21:13:19;20.70;99.90
22623;DHT22;11478;51.094;7.030;2022-08-04T21:15:46;20.70;99.90
22623;DHT22;11478;51.094;7.030;2022-08-04T21:18:13;20.60;99.90
22623;DHT22;11478;51.094;7.030;2022-08-04T21:20:39;20.60;99.90
22623;DHT22;11478;51.094;7.030;2022-08-04T21:23:05;20.50;99.90
22623;DHT22;11478;51.094;7.030;2022-08-04T21:25:34;20.50;99.90
22623;DHT22;11478;51.094;7.030;2022-08-04T21:28:01;20.50;99.90
22623;DHT22;11478;51.094;7.030;2022-08-04T21:30:35;20.50;99.90
22623;DHT22;11478;51.094;7.030;2022-08-04T21:33:01;20.50;99.90
22623;DHT22;11478;51.094;7.030;2022-08-04T21:35:28;20.50;99.90
22623;DHT22;11478;51.094;7.030;2022-08-04T21:37:53;20.50;99.90
22623;DHT22;11478;51.094;7.030;2022-08-04T21:40:20;20.50;99.90
22623;DHT22;11478;51.094;7.030;2022-08-04T21:42:46;20.50;99.90
22623;DHT22;11478;51.094;7.030;2022-08-04T21:45:12;20.50;99.90
22623;DHT22;11478;51.094;7.030;2022-08-04T21:47:38;20.50;99.90
22623;DHT22;11478;51.094;7.030;2022-08-04T21:50:04;20.50;99.90
22623;DHT22;11478;51.094;7.030;2022-08-04T21:52:30;20.50;99.90
22623;DHT22;11478;51.094;7.030;2022-08-04T21:54:56;20.50;99.90
22623;DHT22;11478;51.094;7.030;2022-08-04T21:57:22;20.40;99.90
22623;DHT22;11478;51.094;7.030;2022-08-04T21:59:48;20.40;99.90
22623;DHT22;11478;51.094;7.030;2022-08-04T22:02:14;20.40;99.90
22623;DHT22;11478;51.094;7.030;2022-08-04T22:04:41;20.30;99.90
22623;DHT22;11478;51.094;7.030;2022-08-04T22:07:08;20.30;99.90
22623;DHT22;11478;51.094;7.030;2022-08-04T22:09:35;20.30;99.90
22623;DHT22;11478;51.094;7.030;2022-08-04T22:12:04;20.30;99.90
22623;DHT22;11478;51.094;7.030;2022-08-04T22:14:30;20.30;99.90
22623;DHT22;11478;51.094;7.030;2022-08-04T22:16:56;20.30;99.90
22623;DHT22;11478;51.094;7.030;2022-08-04T22:19:23;20.40;99.90
22623;DHT22;11478;51.094;7.030;2022-08-04T22:21:51;20.40;99.90
22623;DHT22;11478;51.094;7.030;2022-08-04T22:24:17;20.50;99.90
22623;DHT22;11478;51.094;7.030;2022-08-04T22:26:43;20.50;99.90
22623;DHT22;11478;51.094;7.030;2022-08-04T22:29:11;20.50;99.90
22623;DHT22;11478;51.094;7.030;2022-08-04T22:31:37;20.50;99.90
22623;DHT22;11478;51.094;7.030;2022-08-04T22:34:03;20.50;99.90
22623;DHT22;11478;51.094;7.030;2022-08-04T22:36:30;20.60;99.90
22623;DHT22;11478;51.094;7.030;2022-08-04T22:38:56;20.60;99.90
22623;DHT22;11478;51.094;7.030;2022-08-04T22:41:24;20.60;99.90
22623;DHT22;11478;51.094;7.030;2022-08-04T22:43:50;20.70;99.90